sensor_id;sensor_type;location;lat;lon;timestamp;pressure;altitude;pressure_sealevel;temperature
76007;BMP280;64699;0.000;0.000;2023-04-16T00:00:54;100419.22;;;17.13
76007;BMP280;64699;0.000;0.000;2023-04-16T00:03:19;100417.78;;;17.12
76007;BMP280;64699;0.000;0.000;2023-04-16T00:05:44;100416.28;;;17.11
76007;BMP280;64699;0.000;0.000;2023-04-16T00:08:09;100413.53;;;17.11
76007;BMP280;64699;0.000;0.000;2023-04-16T00:10:35;100429.47;;;17.13
76007;BMP280;64699;0.000;0.000;2023-04-16T00:13:00;100417.00;;;17.12
76007;BMP280;64699;0.000;0.000;2023-04-16T00:15:25;100419.03;;;17.11
76007;BMP280;64699;0.000;0.000;2023-04-16T00:17:50;100420.28;;;17.10
76007;BMP280;64699;0.000;0.000;2023-04-16T00:20:15;100420.28;;;17.10
76007;BMP280;64699;0.000;0.000;2023-04-16T00:22:41;100417.53;;;17.10
76007;BMP280;64699;0.000;0.000;2023-04-16T00:25:06;100416.78;;;17.10
76007;BMP280;64699;0.000;0.000;2023-04-16T00:27:31;100410.03;;;17.11
76007;BMP280;64699;0.000;0.000;2023-04-16T00:29:56;100413.31;;;17.09
76007;BMP280;64699;0.000;0.000;2023-04-16T00:32:22;100416.78;;;17.10
76007;BMP280;64699;0.000;0.000;2023-04-16T00:34:47;100423.53;;;17.09
76007;BMP280;64699;0.000;0.000;2023-04-16T00:37:12;100413.31;;;17.09
76007;BMP280;64699;0.000;0.000;2023-04-16T00:39:37;100413.31;;;17.09
76007;BMP280;64699;0.000;0.000;2023-04-16T00:42:03;100407.06;;;17.09
76007;BMP280;64699;0.000;0.000;2023-04-16T00:44:28;100404.84;;;17.07
76007;BMP280;64699;0.000;0.000;2023-04-16T00:46:54;100413.09;;;17.07
76007;BMP280;64699;0.000;0.000;2023-04-16T00:49:20;100410.34;;;17.07
76007;BMP280;64699;0.000;0.000;2023-04-16T00:51:45;100404.84;;;17.07
76007;BMP280;64699;0.000;0.000;2023-04-16T00:54:10;100411.09;;;17.08
76007;BMP280;64699;0.000;0.000;2023-04-16T00:56:36;100423.34;;;17.07
76007;BMP280;64699;0.000;0.000;2023-04-16T00:59:01;100415.09;;;17.07
76007;BMP280;64699;0.000;0.000;2023-04-16T01:01:27;100411.59;;;17.06
76007;BMP280;64699;0.000;0.000;2023-04-16T01:03:52;100408.84;;;17.06
76007;BMP280;64699;0.000;0.000;2023-04-16T01:06:18;100408.84;;;17.06
76007;BMP280;64699;0.000;0.000;2023-04-16T01:08:44;100408.13;;;17.06
76007;BMP280;64699;0.000;0.000;2023-04-16T01:11:09;100412.84;;;17.05
76007;BMP280;64699;0.000;0.000;2023-04-16T01:13:35;100423.06;;;17.05
76007;BMP280;64699;0.000;0.000;2023-04-16T01:16:03;100405.88;;;17.04
76007;BMP280;64699;0.000;0.000;2023-04-16T01:18:28;100399.63;;;17.04
76007;BMP280;64699;0.000;0.000;2023-04-16T01:20:53;100410.63;;;17.04
76007;BMP280;64699;0.000;0.000;2023-04-16T01:23:19;100404.41;;;17.03
76007;BMP280;64699;0.000;0.000;2023-04-16T01:25:44;100409.88;;;17.03
76007;BMP280;64699;0.000;0.000;2023-04-16T01:28:10;100411.38;;;17.04
76007;BMP280;64699;0.000;0.000;2023-04-16T01:30:35;100405.69;;;17.02
76007;BMP280;64699;0.000;0.000;2023-04-16T01:33:00;100408.44;;;17.02
76007;BMP280;64699;0.000;0.000;2023-04-16T01:35:25;100409.16;;;17.03
76007;BMP280;64699;0.000;0.000;2023-04-16T01:37:51;100409.16;;;17.03
76007;BMP280;64699;0.000;0.000;2023-04-16T01:40:16;100413.91;;;17.02
76007;BMP280;64699;0.000;0.000;2023-04-16T01:42:42;100413.16;;;17.02
76007;BMP280;64699;0.000;0.000;2023-04-16T01:45:07;100421.91;;;17.00
76007;BMP280;64699;0.000;0.000;2023-04-16T01:47:32;100428.91;;;17.01
76007;BMP280;64699;0.000;0.000;2023-04-16T01:49:58;100426.88;;;17.02
76007;BMP280;64699;0.000;0.000;2023-04-16T01:52:23;100434.88;;;17.00
76007;BMP280;64699;0.000;0.000;2023-04-16T01:54:48;100433.94;;;16.97
76007;BMP280;64699;0.000;0.000;2023-04-16T01:57:14;100439.63;;;16.99
76007;BMP280;64699;0.000;0.000;2023-04-16T01:59:39;100442.34;;;16.99
76007;BMP280;64699;0.000;0.000;2023-04-16T02:02:06;100443.13;;;17.00
76007;BMP280;64699;0.000;0.000;2023-04-16T02:04:32;100449.34;;;17.00
76007;BMP280;64699;0.000;0.000;2023-04-16T02:06:57;100436.88;;;16.99
76007;BMP280;64699;0.000;0.000;2023-04-16T02:09:22;100439.63;;;16.99
76007;BMP280;64699;0.000;0.000;2023-04-16T02:11:48;100439.63;;;16.99
76007;BMP280;64699;0.000;0.000;2023-04-16T02:14:13;100447.84;;;16.99
76007;BMP280;64699;0.000;0.000;2023-04-16T02:16:38;100458.81;;;16.99
76007;BMP280;64699;0.000;0.000;2023-04-16T02:19:04;100464.31;;;16.99
76007;BMP280;64699;0.000;0.000;2023-04-16T02:21:29;100461.56;;;16.99
76007;BMP280;64699;0.000;0.000;2023-04-16T02:23:55;100462.13;;;16.98
76007;BMP280;64699;0.000;0.000;2023-04-16T02:26:21;100469.09;;;16.99
76007;BMP280;64699;0.000;0.000;2023-04-16T02:28:46;100469.59;;;16.97
76007;BMP280;64699;0.000;0.000;2023-04-16T02:31:11;100467.63;;;16.98
76007;BMP280;64699;0.000;0.000;2023-04-16T02:33:37;100464.63;;;16.96
76007;BMP280;64699;0.000;0.000;2023-04-16T02:36:02;100463.88;;;16.95
76007;BMP280;64699;0.000;0.000;2023-04-16T02:38:27;100471.59;;;16.97
76007;BMP280;64699;0.000;0.000;2023-04-16T02:40:52;100470.88;;;16.96
76007;BMP280;64699;0.000;0.000;2023-04-16T02:43:18;100480.34;;;16.95
76007;BMP280;64699;0.000;0.000;2023-04-16T02:45:43;100470.09;;;16.96
76007;BMP280;64699;0.000;0.000;2023-04-16T02:48:08;100480.34;;;16.95
76007;BMP280;64699;0.000;0.000;2023-04-16T02:50:33;100480.34;;;16.95
76007;BMP280;64699;0.000;0.000;2023-04-16T02:52:59;100486.56;;;16.96
76007;BMP280;64699;0.000;0.000;2023-04-16T02:55:24;100489.31;;;16.96
76007;BMP280;64699;0.000;0.000;2023-04-16T02:57:49;100488.59;;;16.95
76007;BMP280;64699;0.000;0.000;2023-04-16T03:00:16;100490.56;;;16.95
76007;BMP280;64699;0.000;0.000;2023-04-16T03:02:42;100487.09;;;16.94
76007;BMP280;64699;0.000;0.000;2023-04-16T03:05:07;100489.09;;;16.94
76007;BMP280;64699;0.000;0.000;2023-04-16T03:07:32;100486.88;;;16.92
76007;BMP280;64699;0.000;0.000;2023-04-16T03:09:58;100486.34;;;16.94
76007;BMP280;64699;0.000;0.000;2023-04-16T03:12:23;100489.09;;;16.94
76007;BMP280;64699;0.000;0.000;2023-04-16T03:14:49;100489.84;;;16.94
76007;BMP280;64699;0.000;0.000;2023-04-16T03:17:14;100494.56;;;16.94
76007;BMP280;64699;0.000;0.000;2023-04-16T03:19:39;100493.88;;;16.93
76007;BMP280;64699;0.000;0.000;2023-04-16T03:22:05;100488.88;;;16.92
76007;BMP280;64699;0.000;0.000;2023-04-16T03:24:30;100497.84;;;16.92
76007;BMP280;64699;0.000;0.000;2023-04-16T03:26:56;100504.84;;;16.93
76007;BMP280;64699;0.000;0.000;2023-04-16T03:29:21;100501.34;;;16.93
76007;BMP280;64699;0.000;0.000;2023-04-16T03:31:46;100500.59;;;16.92
76007;BMP280;64699;0.000;0.000;2023-04-16T03:34:12;100503.34;;;16.92
76007;BMP280;64699;0.000;0.000;2023-04-16T03:36:37;100499.84;;;16.92
76007;BMP280;64699;0.000;0.000;2023-04-16T03:39:02;100495.09;;;16.92
76007;BMP280;64699;0.000;0.000;2023-04-16T03:41:27;100504.59;;;16.91
76007;BMP280;64699;0.000;0.000;2023-04-16T03:43:52;100501.84;;;16.91
76007;BMP280;64699;0.000;0.000;2023-04-16T03:46:18;100498.38;;;16.91
76007;BMP280;64699;0.000;0.000;2023-04-16T03:48:43;100497.63;;;16.90
76007;BMP280;64699;0.000;0.000;2023-04-16T03:51:08;100494.88;;;16.90
76007;BMP280;64699;0.000;0.000;2023-04-16T03:53:33;100493.59;;;16.91
76007;BMP280;64699;0.000;0.000;2023-04-16T03:55:58;100497.63;;;16.90
76007;BMP280;64699;0.000;0.000;2023-04-16T03:58:24;100511.34;;;16.90
76007;BMP280;64699;0.000;0.000;2023-04-16T04:00:51;100516.81;;;16.90
76007;BMP280;64699;0.000;0.000;2023-04-16T04:03:16;100511.34;;;16.90
76007;BMP280;64699;0.000;0.000;2023-04-16T04:05:42;100516.09;;;16.90
76007;BMP280;64699;0.000;0.000;2023-04-16T04:08:07;100504.34;;;16.89
76007;BMP280;64699;0.000;0.000;2023-04-16T04:10:33;100518.06;;;16.89
76007;BMP280;64699;0.000;0.000;2023-04-16T04:12:59;100509.84;;;16.89
76007;BMP280;64699;0.000;0.000;2023-04-16T04:15:24;100519.56;;;16.90
76007;BMP280;64699;0.000;0.000;2023-04-16T04:17:49;100519.34;;;16.88
76007;BMP280;64699;0.000;0.000;2023-04-16T04:20:15;100509.09;;;16.89
76007;BMP280;64699;0.000;0.000;2023-04-16T04:22:40;100514.56;;;16.89
76007;BMP280;64699;0.000;0.000;2023-04-16T04:25:07;100517.88;;;16.87
76007;BMP280;64699;0.000;0.000;2023-04-16T04:27:32;100522.06;;;16.88
76007;BMP280;64699;0.000;0.000;2023-04-16T04:29:57;100513.84;;;16.88
76007;BMP280;64699;0.000;0.000;2023-04-16T04:32:23;100516.38;;;16.86
76007;BMP280;64699;0.000;0.000;2023-04-16T04:34:48;100528.84;;;16.87
76007;BMP280;64699;0.000;0.000;2023-04-16T04:37:13;100528.84;;;16.87
76007;BMP280;64699;0.000;0.000;2023-04-16T04:39:38;100530.84;;;16.87
76007;BMP280;64699;0.000;0.000;2023-04-16T04:42:03;100534.34;;;16.87
76007;BMP280;64699;0.000;0.000;2023-04-16T04:44:28;100531.59;;;16.87
76007;BMP280;64699;0.000;0.000;2023-04-16T04:46:54;100539.06;;;16.87
76007;BMP280;64699;0.000;0.000;2023-04-16T04:49:19;100539.81;;;16.87
76007;BMP280;64699;0.000;0.000;2023-04-16T04:51:44;100540.31;;;16.86
76007;BMP280;64699;0.000;0.000;2023-04-16T04:54:10;100550.03;;;16.87
76007;BMP280;64699;0.000;0.000;2023-04-16T04:56:35;100555.53;;;16.87
76007;BMP280;64699;0.000;0.000;2023-04-16T04:59:00;100552.78;;;16.87
76007;BMP280;64699;0.000;0.000;2023-04-16T05:01:25;100558.28;;;16.87
76007;BMP280;64699;0.000;0.000;2023-04-16T05:03:51;100562.28;;;16.86
76007;BMP280;64699;0.000;0.000;2023-04-16T05:06:16;100560.28;;;16.86
76007;BMP280;64699;0.000;0.000;2023-04-16T05:08:41;100562.28;;;16.86
76007;BMP280;64699;0.000;0.000;2023-04-16T05:11:06;100565.78;;;16.86
76007;BMP280;64699;0.000;0.000;2023-04-16T05:13:31;100561.03;;;16.87
76007;BMP280;64699;0.000;0.000;2023-04-16T05:15:57;100551.31;;;16.86
76007;BMP280;64699;0.000;0.000;2023-04-16T05:18:22;100552.06;;;16.86
76007;BMP280;64699;0.000;0.000;2023-04-16T05:20:47;100558.78;;;16.85
76007;BMP280;64699;0.000;0.000;2023-04-16T05:23:13;100559.53;;;16.86
76007;BMP280;64699;0.000;0.000;2023-04-16T05:25:39;100565.78;;;16.86
76007;BMP280;64699;0.000;0.000;2023-04-16T05:28:05;100567.75;;;16.86
76007;BMP280;64699;0.000;0.000;2023-04-16T05:30:30;100563.53;;;16.85
76007;BMP280;64699;0.000;0.000;2023-04-16T05:32:55;100564.25;;;16.85
76007;BMP280;64699;0.000;0.000;2023-04-16T05:35:20;100572.50;;;16.85
76007;BMP280;64699;0.000;0.000;2023-04-16T05:37:46;100572.50;;;16.85
76007;BMP280;64699;0.000;0.000;2023-04-16T05:40:12;100576.00;;;16.86
76007;BMP280;64699;0.000;0.000;2023-04-16T05:42:37;100573.75;;;16.84
76007;BMP280;64699;0.000;0.000;2023-04-16T05:45:02;100583.47;;;16.85
76007;BMP280;64699;0.000;0.000;2023-04-16T05:47:28;100573.75;;;16.84
76007;BMP280;64699;0.000;0.000;2023-04-16T05:49:54;100580.00;;;16.85
76007;BMP280;64699;0.000;0.000;2023-04-16T05:52:19;100577.97;;;16.85
76007;BMP280;64699;0.000;0.000;2023-04-16T05:54:44;100585.47;;;16.85
76007;BMP280;64699;0.000;0.000;2023-04-16T05:57:09;100581.25;;;16.84
76007;BMP280;64699;0.000;0.000;2023-04-16T05:59:35;100584.72;;;16.84
76007;BMP280;64699;0.000;0.000;2023-04-16T06:02:00;100583.25;;;16.83
76007;BMP280;64699;0.000;0.000;2023-04-16T06:04:25;100578.50;;;16.84
76007;BMP280;64699;0.000;0.000;2023-04-16T06:06:50;100584.00;;;16.84
76007;BMP280;64699;0.000;0.000;2023-04-16T06:09:16;100581.25;;;16.84
76007;BMP280;64699;0.000;0.000;2023-04-16T06:11:42;100594.25;;;16.83
76007;BMP280;64699;0.000;0.000;2023-04-16T06:14:07;100583.25;;;16.83
76007;BMP280;64699;0.000;0.000;2023-04-16T06:16:32;100575.03;;;16.83
76007;BMP280;64699;0.000;0.000;2023-04-16T06:18:57;100581.78;;;16.82
76007;BMP280;64699;0.000;0.000;2023-04-16T06:21:23;100581.78;;;16.82
76007;BMP280;64699;0.000;0.000;2023-04-16T06:23:48;100582.53;;;16.83
76007;BMP280;64699;0.000;0.000;2023-04-16T06:26:13;100576.28;;;16.82
76007;BMP280;64699;0.000;0.000;2023-04-16T06:28:38;100581.78;;;16.82
76007;BMP280;64699;0.000;0.000;2023-04-16T06:31:04;100581.78;;;16.82
76007;BMP280;64699;0.000;0.000;2023-04-16T06:33:29;100592.75;;;16.82
76007;BMP280;64699;0.000;0.000;2023-04-16T06:35:54;100587.25;;;16.82
76007;BMP280;64699;0.000;0.000;2023-04-16T06:38:19;100591.25;;;16.81
76007;BMP280;64699;0.000;0.000;2023-04-16T06:40:44;100596.75;;;16.81
76007;BMP280;64699;0.000;0.000;2023-04-16T06:43:10;100586.53;;;16.82
76007;BMP280;64699;0.000;0.000;2023-04-16T06:45:35;100592.00;;;16.82
76007;BMP280;64699;0.000;0.000;2023-04-16T06:48:00;100602.22;;;16.81
76007;BMP280;64699;0.000;0.000;2023-04-16T06:50:27;100604.97;;;16.81
76007;BMP280;64699;0.000;0.000;2023-04-16T06:52:53;100604.97;;;16.81
76007;BMP280;64699;0.000;0.000;2023-04-16T06:55:18;100606.22;;;16.80
76007;BMP280;64699;0.000;0.000;2023-04-16T06:57:43;100609.69;;;16.81
76007;BMP280;64699;0.000;0.000;2023-04-16T07:00:08;100610.47;;;16.81
76007;BMP280;64699;0.000;0.000;2023-04-16T07:02:34;100616.72;;;16.82
76007;BMP280;64699;0.000;0.000;2023-04-16T07:04:59;100611.72;;;16.80
76007;BMP280;64699;0.000;0.000;2023-04-16T07:07:24;100611.72;;;16.80
76007;BMP280;64699;0.000;0.000;2023-04-16T07:09:50;100610.22;;;16.79
76007;BMP280;64699;0.000;0.000;2023-04-16T07:12:16;100617.19;;;16.80
76007;BMP280;64699;0.000;0.000;2023-04-16T07:14:41;100616.44;;;16.80
76007;BMP280;64699;0.000;0.000;2023-04-16T07:17:06;100617.94;;;16.81
76007;BMP280;64699;0.000;0.000;2023-04-16T07:19:31;100628.19;;;16.80
76007;BMP280;64699;0.000;0.000;2023-04-16T07:21:59;100622.69;;;16.80
76007;BMP280;64699;0.000;0.000;2023-04-16T07:24:25;100622.69;;;16.80
76007;BMP280;64699;0.000;0.000;2023-04-16T07:26:50;100629.81;;;16.59
76007;BMP280;64699;0.000;0.000;2023-04-16T07:29:15;100634.09;;;16.15
76007;BMP280;64699;0.000;0.000;2023-04-16T07:31:40;100632.72;;;15.97
76007;BMP280;64699;0.000;0.000;2023-04-16T07:34:06;100641.50;;;16.31
76007;BMP280;64699;0.000;0.000;2023-04-16T07:36:31;100648.56;;;16.55
76007;BMP280;64699;0.000;0.000;2023-04-16T07:38:56;100643.47;;;16.70
76007;BMP280;64699;0.000;0.000;2023-04-16T07:41:22;100645.63;;;16.83
76007;BMP280;64699;0.000;0.000;2023-04-16T07:43:47;100645.56;;;16.88
76007;BMP280;64699;0.000;0.000;2023-04-16T07:46:12;100649.59;;;16.87
76007;BMP280;64699;0.000;0.000;2023-04-16T07:48:37;100657.81;;;16.87
76007;BMP280;64699;0.000;0.000;2023-04-16T07:51:03;100656.53;;;16.88
76007;BMP280;64699;0.000;0.000;2023-04-16T07:53:28;100652.53;;;16.89
76007;BMP280;64699;0.000;0.000;2023-04-16T07:55:54;100661.00;;;16.91
76007;BMP280;64699;0.000;0.000;2023-04-16T07:58:19;100664.50;;;16.92
76007;BMP280;64699;0.000;0.000;2023-04-16T08:00:44;100671.50;;;16.93
76007;BMP280;64699;0.000;0.000;2023-04-16T08:03:10;100671.69;;;16.95
76007;BMP280;64699;0.000;0.000;2023-04-16T08:05:35;100669.19;;;16.97
76007;BMP280;64699;0.000;0.000;2023-04-16T08:08:00;100676.91;;;16.98
76007;BMP280;64699;0.000;0.000;2023-04-16T08:10:26;100670.44;;;17.01
76007;BMP280;64699;0.000;0.000;2023-04-16T08:12:51;100677.63;;;17.04
76007;BMP280;64699;0.000;0.000;2023-04-16T08:15:17;100677.13;;;17.06
76007;BMP280;64699;0.000;0.000;2023-04-16T08:17:43;100685.59;;;17.08
76007;BMP280;64699;0.000;0.000;2023-04-16T08:20:08;100682.31;;;17.09
76007;BMP280;64699;0.000;0.000;2023-04-16T08:22:33;100686.78;;;17.12
76007;BMP280;64699;0.000;0.000;2023-04-16T08:24:58;100687.25;;;17.16
76007;BMP280;64699;0.000;0.000;2023-04-16T08:27:24;100686.22;;;17.19
76007;BMP280;64699;0.000;0.000;2023-04-16T08:29:49;100692.72;;;17.22
76007;BMP280;64699;0.000;0.000;2023-04-16T08:32:14;100684.19;;;17.25
76007;BMP280;64699;0.000;0.000;2023-04-16T08:34:40;100678.91;;;17.27
76007;BMP280;64699;0.000;0.000;2023-04-16T08:37:05;100689.56;;;17.36
76007;BMP280;64699;0.000;0.000;2023-04-16T08:39:31;100688.53;;;17.63
76007;BMP280;64699;0.000;0.000;2023-04-16T08:41:56;100682.78;;;17.61
76007;BMP280;64699;0.000;0.000;2023-04-16T08:44:26;100686.28;;;17.61
76007;BMP280;64699;0.000;0.000;2023-04-16T08:46:52;100686.50;;;17.63
76007;BMP280;64699;0.000;0.000;2023-04-16T08:49:26;100693.50;;;17.64
76007;BMP280;64699;0.000;0.000;2023-04-16T08:51:52;100697.22;;;17.67
76007;BMP280;64699;0.000;0.000;2023-04-16T08:56:48;100698.19;;;17.69
76007;BMP280;64699;0.000;0.000;2023-04-16T08:59:15;100700.19;;;17.69
76007;BMP280;64699;0.000;0.000;2023-04-16T09:01:40;100693.66;;;17.72
76007;BMP280;64699;0.000;0.000;2023-04-16T09:04:06;100705.09;;;17.76
76007;BMP280;64699;0.000;0.000;2023-04-16T09:06:31;100703.84;;;17.77
76007;BMP280;64699;0.000;0.000;2023-04-16T09:08:57;100692.84;;;17.77
76007;BMP280;64699;0.000;0.000;2023-04-16T09:11:25;100704.81;;;17.79
76007;BMP280;64699;0.000;0.000;2023-04-16T09:13:50;100709.78;;;17.81
76007;BMP280;64699;0.000;0.000;2023-04-16T09:16:16;100709.28;;;17.82
76007;BMP280;64699;0.000;0.000;2023-04-16T09:18:41;100712.78;;;17.83
76007;BMP280;64699;0.000;0.000;2023-04-16T09:21:08;100711.53;;;17.84
76007;BMP280;64699;0.000;0.000;2023-04-16T09:23:33;100713.75;;;17.85
76007;BMP280;64699;0.000;0.000;2023-04-16T09:25:59;100711.97;;;17.88
76007;BMP280;64699;0.000;0.000;2023-04-16T09:28:40;100718.22;;;17.88
76007;BMP280;64699;0.000;0.000;2023-04-16T09:31:11;100710.69;;;17.89
76007;BMP280;64699;0.000;0.000;2023-04-16T09:33:37;100714.94;;;17.90
76007;BMP280;64699;0.000;0.000;2023-04-16T09:36:02;100719.41;;;17.93
76007;BMP280;64699;0.000;0.000;2023-04-16T09:41:12;100720.34;;;17.95
76007;BMP280;64699;0.000;0.000;2023-04-16T09:43:37;100721.34;;;17.98
76007;BMP280;64699;0.000;0.000;2023-04-16T09:46:03;100721.34;;;17.98
76007;BMP280;64699;0.000;0.000;2023-04-16T09:48:31;100724.31;;;18.00
76007;BMP280;64699;0.000;0.000;2023-04-16T09:50:57;100731.28;;;18.01
76007;BMP280;64699;0.000;0.000;2023-04-16T09:53:24;100730.78;;;18.02
76007;BMP280;64699;0.000;0.000;2023-04-16T09:55:50;100737.25;;;18.05
76007;BMP280;64699;0.000;0.000;2023-04-16T09:58:17;100732.75;;;18.07
76007;BMP280;64699;0.000;0.000;2023-04-16T10:00:42;100738.94;;;18.08
76007;BMP280;64699;0.000;0.000;2023-04-16T10:03:08;100737.69;;;18.09
76007;BMP280;64699;0.000;0.000;2023-04-16T10:05:33;100735.19;;;18.11
76007;BMP280;64699;0.000;0.000;2023-04-16T10:07:59;100738.13;;;18.13
76007;BMP280;64699;0.000;0.000;2023-04-16T10:10:25;100735.63;;;18.15
76007;BMP280;64699;0.000;0.000;2023-04-16T10:12:50;100737.09;;;18.16
76007;BMP280;64699;0.000;0.000;2023-04-16T10:15:15;100731.63;;;18.16
76007;BMP280;64699;0.000;0.000;2023-04-16T10:17:41;100731.84;;;18.18
76007;BMP280;64699;0.000;0.000;2023-04-16T10:20:06;100744.56;;;18.21
76007;BMP280;64699;0.000;0.000;2023-04-16T10:22:32;100744.56;;;18.21
76007;BMP280;64699;0.000;0.000;2023-04-16T10:24:57;100738.31;;;18.20
76007;BMP280;64699;0.000;0.000;2023-04-16T10:27:23;100743.81;;;18.20
76007;BMP280;64699;0.000;0.000;2023-04-16T10:29:48;100748.56;;;18.20
76007;BMP280;64699;0.000;0.000;2023-04-16T10:32:14;100755.56;;;18.21
76007;BMP280;64699;0.000;0.000;2023-04-16T10:34:40;100757.78;;;18.22
76007;BMP280;64699;0.000;0.000;2023-04-16T10:37:05;100746.25;;;18.24
76007;BMP280;64699;0.000;0.000;2023-04-16T10:39:30;100754.50;;;18.24
76007;BMP280;64699;0.000;0.000;2023-04-16T10:42:10;100754.50;;;18.24
76007;BMP280;64699;0.000;0.000;2023-04-16T10:44:36;100751.75;;;18.24
76007;BMP280;64699;0.000;0.000;2023-04-16T10:47:01;100751.75;;;18.24
76007;BMP280;64699;0.000;0.000;2023-04-16T10:49:26;100757.25;;;18.24
76007;BMP280;64699;0.000;0.000;2023-04-16T10:51:59;100756.03;;;18.25
76007;BMP280;64699;0.000;0.000;2023-04-16T10:56:50;100747.00;;;18.24
76007;BMP280;64699;0.000;0.000;2023-04-16T10:59:19;100747.78;;;18.25
76007;BMP280;64699;0.000;0.000;2023-04-16T11:01:46;100754.50;;;18.24
76007;BMP280;64699;0.000;0.000;2023-04-16T11:12:14;100760.00;;;18.24
76007;BMP280;64699;0.000;0.000;2023-04-16T11:14:40;100760.75;;;18.24
76007;BMP280;64699;0.000;0.000;2023-04-16T11:17:06;100764.78;;;18.23
76007;BMP280;64699;0.000;0.000;2023-04-16T11:19:31;100765.50;;;18.24
76007;BMP280;64699;0.000;0.000;2023-04-16T11:21:56;100763.50;;;18.24
76007;BMP280;64699;0.000;0.000;2023-04-16T11:24:22;100764.00;;;18.23
76007;BMP280;64699;0.000;0.000;2023-04-16T11:26:49;100764.00;;;18.23
76007;BMP280;64699;0.000;0.000;2023-04-16T11:29:15;100768.25;;;18.24
76007;BMP280;64699;0.000;0.000;2023-04-16T11:31:40;100760.00;;;18.24
76007;BMP280;64699;0.000;0.000;2023-04-16T11:34:09;100760.00;;;18.24
76007;BMP280;64699;0.000;0.000;2023-04-16T11:36:44;100762.97;;;18.26
76007;BMP280;64699;0.000;0.000;2023-04-16T11:39:09;100771.00;;;18.24
76007;BMP280;64699;0.000;0.000;2023-04-16T11:41:40;100769.78;;;18.25
76007;BMP280;64699;0.000;0.000;2023-04-16T11:44:18;100762.31;;;18.20
76007;BMP280;64699;0.000;0.000;2023-04-16T11:46:44;100762.09;;;18.18
76007;BMP280;64699;0.000;0.000;2023-04-16T11:49:09;100755.63;;;18.15
76007;BMP280;64699;0.000;0.000;2023-04-16T11:51:41;100753.38;;;18.14
76007;BMP280;64699;0.000;0.000;2023-04-16T11:54:06;100735.25;;;18.05
76007;BMP280;64699;0.000;0.000;2023-04-16T11:56:33;100756.59;;;18.18
76007;BMP280;64699;0.000;0.000;2023-04-16T11:59:31;100752.59;;;18.19
76007;BMP280;64699;0.000;0.000;2023-04-16T12:01:51;100755.34;;;18.19
76007;BMP280;64699;0.000;0.000;2023-04-16T12:04:20;100747.81;;;18.19
76007;BMP280;64699;0.000;0.000;2023-04-16T12:09:30;100741.59;;;18.19
76007;BMP280;64699;0.000;0.000;2023-04-16T12:11:56;100754.81;;;18.20
76007;BMP280;64699;0.000;0.000;2023-04-16T12:14:21;100745.81;;;18.20
76007;BMP280;64699;0.000;0.000;2023-04-16T12:16:47;100742.84;;;18.18
76007;BMP280;64699;0.000;0.000;2023-04-16T12:19:12;100754.81;;;18.20
76007;BMP280;64699;0.000;0.000;2023-04-16T12:21:38;100742.44;;;18.08
76007;BMP280;64699;0.000;0.000;2023-04-16T12:24:04;100741.56;;;18.00
76007;BMP280;64699;0.000;0.000;2023-04-16T12:27:03;100751.22;;;18.07
76007;BMP280;64699;0.000;0.000;2023-04-16T12:29:27;100733.69;;;18.10
76007;BMP280;64699;0.000;0.000;2023-04-16T12:31:52;100744.94;;;18.12
76007;BMP280;64699;0.000;0.000;2023-04-16T12:34:18;100742.88;;;18.12
76007;BMP280;64699;0.000;0.000;2023-04-16T12:36:44;100740.38;;;18.14
76007;BMP280;64699;0.000;0.000;2023-04-16T12:39:10;100738.91;;;18.13
76007;BMP280;64699;0.000;0.000;2023-04-16T12:41:36;100745.13;;;18.14
76007;BMP280;64699;0.000;0.000;2023-04-16T12:44:07;100740.19;;;17.88
76007;BMP280;64699;0.000;0.000;2023-04-16T12:46:39;100732.88;;;17.72
76007;BMP280;64699;0.000;0.000;2023-04-16T12:49:04;100745.31;;;17.79
76007;BMP280;64699;0.000;0.000;2023-04-16T12:51:30;100740.72;;;17.87
76007;BMP280;64699;0.000;0.000;2023-04-16T12:53:56;100731.88;;;17.94
76007;BMP280;64699;0.000;0.000;2023-04-16T12:56:21;100728.31;;;17.99
76007;BMP280;64699;0.000;0.000;2023-04-16T12:58:46;100734.03;;;18.01
76007;BMP280;64699;0.000;0.000;2023-04-16T13:01:14;100734.03;;;18.01
76007;BMP280;64699;0.000;0.000;2023-04-16T13:03:39;100732.81;;;18.02
76007;BMP280;64699;0.000;0.000;2023-04-16T13:06:05;100735.00;;;18.03
76007;BMP280;64699;0.000;0.000;2023-04-16T13:08:30;100734.28;;;18.03
76007;BMP280;64699;0.000;0.000;2023-04-16T13:10:55;100733.75;;;18.04
76007;BMP280;64699;0.000;0.000;2023-04-16T13:13:20;100730.25;;;18.04
76007;BMP280;64699;0.000;0.000;2023-04-16T13:15:46;100726.25;;;18.05
76007;BMP280;64699;0.000;0.000;2023-04-16T13:18:11;100729.00;;;18.05
76007;BMP280;64699;0.000;0.000;2023-04-16T13:20:36;100729.00;;;18.05
76007;BMP280;64699;0.000;0.000;2023-04-16T13:23:01;100720.75;;;18.05
76007;BMP280;64699;0.000;0.000;2023-04-16T13:25:29;100719.25;;;18.04
76007;BMP280;64699;0.000;0.000;2023-04-16T13:27:54;100731.75;;;18.05
76007;BMP280;64699;0.000;0.000;2023-04-16T13:30:19;100726.25;;;18.05
76007;BMP280;64699;0.000;0.000;2023-04-16T13:32:44;100733.25;;;18.06
76007;BMP280;64699;0.000;0.000;2023-04-16T13:35:10;100729.00;;;18.05
76007;BMP280;64699;0.000;0.000;2023-04-16T13:37:36;100733.25;;;18.06
76007;BMP280;64699;0.000;0.000;2023-04-16T13:40:02;100727.75;;;18.06
76007;BMP280;64699;0.000;0.000;2023-04-16T13:42:27;100728.50;;;18.06
76007;BMP280;64699;0.000;0.000;2023-04-16T13:44:52;100729.00;;;18.05
76007;BMP280;64699;0.000;0.000;2023-04-16T13:47:18;100724.75;;;18.04
76007;BMP280;64699;0.000;0.000;2023-04-16T13:49:44;100734.28;;;18.03
76007;BMP280;64699;0.000;0.000;2023-04-16T13:52:09;100735.75;;;18.04
76007;BMP280;64699;0.000;0.000;2023-04-16T13:54:34;100727.00;;;18.05
76007;BMP280;64699;0.000;0.000;2023-04-16T13:56:59;100729.50;;;18.03
76007;BMP280;64699;0.000;0.000;2023-04-16T13:59:25;100731.53;;;18.03
76007;BMP280;64699;0.000;0.000;2023-04-16T14:01:50;100742.53;;;18.03
76007;BMP280;64699;0.000;0.000;2023-04-16T14:04:15;100724.56;;;18.02
76007;BMP280;64699;0.000;0.000;2023-04-16T14:06:40;100731.28;;;18.01
76007;BMP280;64699;0.000;0.000;2023-04-16T14:09:06;100728.53;;;18.01
76007;BMP280;64699;0.000;0.000;2023-04-16T14:11:31;100731.28;;;18.01
76007;BMP280;64699;0.000;0.000;2023-04-16T14:13:56;100725.78;;;18.01
76007;BMP280;64699;0.000;0.000;2023-04-16T14:16:22;100727.06;;;18.00
76007;BMP280;64699;0.000;0.000;2023-04-16T14:18:47;100736.78;;;18.01